Time;durP1;ratioP1;P1;durP2;ratioP2;P2;SDS_P1;SDS_P2;PMS_P1;PMS_P2;Temp;Humidity;BMP_temperature;BMP_pressure;BME280_temperature;BME280_humidity;BME280_pressure;Samples;Min_cycle;Max_cycle;Signal;HPM_P1;HPM_P2
2022/05/12 00:00:16;;;;;;;11.10;9.00;;;;;;;13.00;64.60;97645.52;105028;1287;24126;-83
2022/05/12 00:03:02;;;;;;;11.40;9.60;;;;;;;12.92;64.69;97644.17;105153;1287;22670;-83
2022/05/12 00:05:30;;;;;;;9.90;8.70;;;;;;;12.88;64.93;97641.44;105037;1287;24400;-83
2022/05/12 00:07:58;;;;;;;10.40;9.30;;;;;;;12.84;65.09;97641.95;104883;1287;22631;-82
2022/05/12 00:10:26;;;;;;;11.80;10.60;;;;;;;12.81;65.00;97637.72;105014;1287;24332;-84
2022/05/12 00:12:58;;;;;;;11.70;10.40;;;;;;;12.80;64.98;97639.31;105150;1287;24240;-84
2022/05/12 00:15:31;;;;;;;10.30;8.60;;;;;;;12.85;65.41;97639.05;104960;1287;22756;-85
2022/05/12 00:18:03;;;;;;;9.40;8.50;;;;;;;12.90;65.63;97635.59;105164;1287;25390;-83
2022/05/12 00:20:33;;;;;;;9.10;8.20;;;;;;;12.89;65.28;97638.73;105330;1287;22730;-84
2022/05/12 00:23:13;;;;;;;9.80;8.70;;;;;;;12.81;65.46;97632.30;105369;1287;26665;-82
2022/05/12 00:25:44;;;;;;;12.30;9.20;;;;;;;12.70;65.47;97630.60;105892;1287;23112;-84
2022/05/12 00:28:12;;;;;;;10.70;8.50;;;;;;;12.64;65.73;97627.42;104948;1287;22658;-85
2022/05/12 00:30:42;;;;;;;9.20;8.30;;;;;;;12.60;66.00;97624.25;104976;1287;22924;-84
2022/05/12 00:33:12;;;;;;;10.00;8.30;;;;;;;12.57;66.07;97628.63;105207;1287;24407;-83
2022/05/12 00:35:41;;;;;;;9.10;8.20;;;;;;;12.54;66.42;97622.73;105231;1287;27059;-84
2022/05/12 00:38:11;;;;;;;9.80;8.40;;;;;;;12.53;66.43;97624.21;104918;1287;24444;-84
2022/05/12 00:40:41;;;;;;;9.60;8.70;;;;;;;12.54;66.56;97623.48;105082;1289;22578;-84
2022/05/12 00:43:37;;;;;;;10.40;9.30;;;;;;;12.52;66.44;97623.80;105117;1287;22566;-84
2022/05/12 00:46:12;;;;;;;13.80;11.60;;;;;;;12.52;66.43;97624.30;105127;1287;23993;-85
2022/05/12 00:48:42;;;;;;;9.40;8.40;;;;;;;12.46;66.37;97625.47;105064;1287;22601;-84
2022/05/12 00:51:17;;;;;;;11.80;9.40;;;;;;;12.40;66.83;97624.88;105071;1287;22551;-85
2022/05/12 00:53:49;;;;;;;9.30;8.40;;;;;;;12.41;67.12;97623.13;107911;1287;22236;-82
2022/05/12 00:56:20;;;;;;;11.60;10.50;;;;;;;12.45;67.12;97617.84;106018;1287;22567;-84
2022/05/12 00:58:52;;;;;;;9.60;8.50;;;;;;;12.45;66.70;97616.39;104874;1287;22764;-84
2022/05/12 01:01:20;;;;;;;9.40;8.40;;;;;;;12.41;66.96;97616.52;105158;1287;23394;-85
2022/05/12 01:03:49;;;;;;;9.90;8.90;;;;;;;12.38;67.01;97614.45;105163;1287;22554;-83
2022/05/12 01:06:17;;;;;;;9.50;8.20;;;;;;;12.36;67.22;97615.75;105139;1287;22563;-84
2022/05/12 01:08:45;;;;;;;13.10;9.90;;;;;;;12.33;67.50;97616.20;105114;1287;22647;-84
2022/05/12 01:11:17;;;;;;;9.80;8.80;;;;;;;12.35;67.60;97610.81;105121;1287;22658;-83
2022/05/12 01:13:52;;;;;;;10.40;9.30;;;;;;;12.42;67.79;97608.05;105105;1287;22683;-84
2022/05/12 01:16:38;;;;;;;10.60;9.20;;;;;;;12.49;67.51;97610.23;104853;1289;22863;-82
2022/05/12 01:19:08;;;;;;;12.70;8.80;;;;;;;12.53;67.38;97610.61;105632;1287;22576;-82
2022/05/12 01:25:26;;;;;;;9.70;8.70;;;;;;;12.28;67.25;97600.27;105128;1287;24244;-84
2022/05/12 01:27:55;;;;;;;11.70;10.30;;;;;;;12.18;67.81;97595.33;105102;1287;24391;-83
2022/05/12 01:30:25;;;;;;;9.30;7.60;;;;;;;12.15;67.96;97596.60;104913;1287;25468;-83
2022/05/12 01:32:52;;;;;;;10.30;7.40;;;;;;;12.20;68.06;97600.61;105100;1287;22783;-83
2022/05/12 01:35:24;;;;;;;8.70;7.90;;;;;;;12.20;68.13;97594.95;105085;1287;25483;-84
2022/05/12 01:37:52;;;;;;;9.60;8.60;;;;;;;12.14;67.93;97591.52;105024;1287;24302;-83
2022/05/12 01:40:22;;;;;;;20.10;18.00;;;;;;;12.11;68.14;97598.14;104908;1289;22888;-84
2022/05/12 01:42:51;;;;;;;11.40;9.40;;;;;;;12.04;68.31;97593.09;104996;1287;22868;-82
2022/05/12 01:45:20;;;;;;;26.40;23.70;;;;;;;12.02;68.28;97590.95;104898;1288;24677;-82
2022/05/12 01:47:50;;;;;;;12.00;9.90;;;;;;;12.05;68.55;97588.23;104955;1287;25388;-84
2022/05/12 01:50:20;;;;;;;10.40;9.30;;;;;;;12.10;68.64;97590.86;104976;1287;22750;-83
2022/05/12 01:52:49;;;;;;;8.70;7.50;;;;;;;12.05;68.67;97589.55;104895;1287;22886;-84
2022/05/12 01:55:20;;;;;;;10.00;8.60;;;;;;;11.99;68.83;97588.18;104930;1287;24645;-84
2022/05/12 01:57:48;;;;;;;9.00;7.70;;;;;;;11.95;68.95;97586.84;104978;1287;22871;-84
2022/05/12 02:00:20;;;;;;;8.30;7.30;;;;;;;11.98;69.09;97587.84;104882;1287;22569;-83
2022/05/12 02:02:49;;;;;;;9.70;7.30;;;;;;;12.04;69.07;97587.69;104915;1287;22622;-85
2022/05/12 02:05:18;;;;;;;9.90;8.40;;;;;;;12.03;68.82;97587.15;104937;1287;22670;-85
2022/05/12 02:07:48;;;;;;;11.30;8.40;;;;;;;11.95;68.91;97588.02;105371;1287;25500;-82
2022/05/12 02:10:37;;;;;;;13.80;11.50;;;;;;;11.87;68.98;97584.31;108609;1287;23543;-82
2022/05/12 02:13:11;;;;;;;11.20;10.20;;;;;;;11.85;69.33;97578.52;108584;1287;24007;-82
2022/05/12 02:15:39;;;;;;;8.30;7.50;;;;;;;11.89;69.23;97582.09;108357;1287;22572;-83
2022/05/12 02:18:08;;;;;;;7.90;7.10;;;;;;;11.86;69.29;97582.79;107788;1287;22572;-83
2022/05/12 02:20:37;;;;;;;10.00;8.00;;;;;;;11.85;69.40;97586.52;107800;1287;23951;-84
2022/05/12 02:23:05;;;;;;;8.60;7.70;;;;;;;11.83;69.66;97585.67;107791;1287;22567;-84
2022/05/12 02:25:32;;;;;;;12.70;10.20;;;;;;;11.82;69.65;97588.04;107297;1287;22556;-84
2022/05/12 02:28:00;;;;;;;8.70;7.20;;;;;;;11.81;69.68;97582.88;106539;1287;24990;-84
2022/05/12 02:30:30;;;;;;;11.30;7.80;;;;;;;11.78;69.71;97587.59;104900;1287;22632;-83
2022/05/12 02:32:59;;;;;;;10.30;7.00;;;;;;;11.76;69.79;97586.90;105141;1287;22570;-82
2022/05/12 02:35:28;;;;;;;9.60;7.20;;;;;;;11.75;70.02;97587.12;105106;1287;22631;-85
2022/05/12 02:37:57;;;;;;;9.50;7.50;;;;;;;11.79;70.24;97582.30;104931;1287;23181;-83
2022/05/12 02:40:28;;;;;;;13.20;12.10;;;;;;;11.81;70.35;97584.49;105220;1287;22593;-84
2022/05/12 02:42:57;;;;;;;11.50;10.20;;;;;;;11.82;70.23;97581.08;105172;1287;25341;-84
2022/05/12 02:45:27;;;;;;;10.50;7.30;;;;;;;11.78;70.10;97579.25;104985;1287;25669;-83
2022/05/12 02:47:56;;;;;;;10.30;7.90;;;;;;;11.70;70.24;97583.20;104946;1287;22584;-84
2022/05/12 02:50:24;;;;;;;10.10;8.30;;;;;;;11.66;70.19;97581.46;105157;1287;25472;-83
2022/05/12 02:52:52;;;;;;;11.00;9.50;;;;;;;11.63;70.15;97576.55;105075;1287;23300;-84
2022/05/12 02:55:20;;;;;;;10.80;9.70;;;;;;;11.60;70.41;97576.69;105174;1287;22706;-84
2022/05/12 02:57:48;;;;;;;10.30;9.30;;;;;;;11.58;70.58;97576.74;104912;1287;26642;-84
2022/05/12 03:00:17;;;;;;;11.80;9.60;;;;;;;11.58;70.59;97575.00;105530;1287;24055;-83
2022/05/12 03:02:46;;;;;;;11.40;8.20;;;;;;;11.58;70.80;97580.47;104987;1287;22564;-85
2022/05/12 03:05:14;;;;;;;9.70;8.70;;;;;;;11.55;70.73;97577.63;105068;1287;22825;-84
2022/05/12 03:07:42;;;;;;;11.60;9.20;;;;;;;11.57;70.91;97575.31;104790;1288;22682;-84
2022/05/12 03:10:14;;;;;;;13.90;12.60;;;;;;;11.62;70.89;97578.26;104962;1288;25369;-84
2022/05/12 03:12:42;;;;;;;11.10;10.10;;;;;;;11.59;70.95;97577.20;104978;1288;22935;-83
2022/05/12 03:15:12;;;;;;;13.50;9.00;;;;;;;11.59;71.05;97580.31;105101;1287;22620;-84
2022/05/12 03:17:44;;;;;;;11.10;10.00;;;;;;;11.57;71.16;97579.20;105189;1287;22577;-84
2022/05/12 03:20:16;;;;;;;13.00;9.80;;;;;;;11.59;71.22;97578.50;104969;1287;25495;-82
2022/05/12 03:22:44;;;;;;;11.30;10.00;;;;;;;11.58;71.30;97582.88;104883;1288;22563;-83
2022/05/12 03:25:14;;;;;;;12.90;10.20;;;;;;;11.55;71.36;97582.27;105108;1287;24319;-84
2022/05/12 03:27:43;;;;;;;11.70;10.60;;;;;;;11.54;71.68;97581.13;105139;1287;24394;-84
2022/05/12 03:30:16;;;;;;;11.10;10.00;;;;;;;11.55;71.69;97579.31;104854;1289;22747;-84
2022/05/12 03:32:44;;;;;;;10.90;9.80;;;;;;;11.59;71.69;97581.61;105085;1287;24301;-84
2022/05/12 03:35:13;;;;;;;14.20;11.20;;;;;;;11.60;71.74;97580.88;104875;1288;22566;-83
2022/05/12 03:37:42;;;;;;;14.00;11.40;;;;;;;11.60;71.82;97583.36;105004;1287;25437;-83
2022/05/12 03:40:14;;;;;;;18.70;16.90;;;;;;;11.62;71.90;97583.27;104992;1289;22954;-83
2022/05/12 03:42:42;;;;;;;26.40;23.80;;;;;;;11.66;71.75;97582.45;105052;1287;23037;-83
2022/05/12 03:45:11;;;;;;;14.80;13.20;;;;;;;11.73;72.02;97577.65;105024;1287;23171;-84
2022/05/12 03:47:43;;;;;;;14.40;11.50;;;;;;;11.84;72.10;97578.45;105139;1287;22561;-84
2022/05/12 03:50:15;;;;;;;13.10;11.00;;;;;;;11.93;72.03;97574.80;104853;1289;24394;-82
2022/05/12 03:52:47;;;;;;;13.10;11.10;;;;;;;11.99;72.08;97572.99;105212;1287;24291;-83
2022/05/12 03:55:18;;;;;;;17.90;14.80;;;;;;;12.06;72.08;97573.33;105127;1287;24080;-83
2022/05/12 03:57:48;;;;;;;12.40;11.10;;;;;;;12.12;72.12;97573.90;104889;1289;23078;-83
2022/05/12 04:00:24;;;;;;;14.40;12.80;;;;;;;12.17;72.26;97577.30;105173;1287;22539;-83
2022/05/12 04:02:52;;;;;;;14.10;11.30;;;;;;;12.27;72.24;97578.91;104983;1288;22712;-83
2022/05/12 04:05:20;;;;;;;14.90;10.20;;;;;;;12.43;72.37;97579.06;104840;1287;22703;-83
2022/05/12 04:07:52;;;;;;;12.70;10.60;;;;;;;12.56;72.23;97578.49;105021;1287;22774;-84
2022/05/12 04:10:21;;;;;;;14.30;11.60;;;;;;;12.69;72.26;97576.98;105031;1287;25364;-84
2022/05/12 04:12:50;;;;;;;15.70;12.90;;;;;;;12.80;72.40;97576.10;105039;1287;25456;-84
2022/05/12 04:15:20;;;;;;;13.00;11.80;;;;;;;12.95;72.69;97579.16;104943;1287;24436;-84
2022/05/12 04:18:04;;;;;;;13.10;10.60;;;;;;;13.12;72.41;97577.58;104928;1288;22566;-83
2022/05/12 04:20:34;;;;;;;12.70;10.30;;;;;;;13.34;72.39;97578.89;104967;1287;23977;-83
2022/05/12 04:23:03;;;;;;;13.00;10.40;;;;;;;13.55;72.24;97580.27;104987;1287;22593;-83
2022/05/12 04:25:31;;;;;;;11.10;9.90;;;;;;;13.75;72.33;97580.45;105003;1287;25338;-85
2022/05/12 04:27:58;;;;;;;12.10;10.40;;;;;;;13.92;72.13;97580.80;104963;1287;22604;-84
2022/05/12 04:30:27;;;;;;;11.60;10.40;;;;;;;14.06;72.02;97580.08;105012;1287;22635;-84
2022/05/12 04:32:55;;;;;;;11.90;10.70;;;;;;;14.20;72.07;97575.42;104916;1287;22563;-84
2022/05/12 04:35:24;;;;;;;14.40;10.50;;;;;;;14.34;71.80;97577.19;104926;1287;22615;-84
2022/05/12 04:37:54;;;;;;;13.10;9.30;;;;;;;14.46;71.58;97581.66;105061;1287;25383;-85
2022/05/12 04:40:29;;;;;;;12.00;8.60;;;;;;;14.57;71.69;97579.81;105498;1289;23191;-85
2022/05/12 04:42:59;;;;;;;14.60;10.60;;;;;;;14.79;71.49;97575.49;105056;1287;25317;-85
2022/05/12 04:45:30;;;;;;;13.30;11.70;;;;;;;15.00;71.39;97572.58;105032;1287;22587;-85
2022/05/12 04:47:58;;;;;;;14.60;11.80;;;;;;;15.22;71.29;97573.80;105060;1287;22566;-84
2022/05/12 04:50:32;;;;;;;13.20;10.90;;;;;;;15.45;71.08;97576.09;105977;1287;22574;-85
2022/05/12 04:53:02;;;;;;;12.50;11.20;;;;;;;15.66;70.75;97576.32;108212;1287;22579;-84
2022/05/12 04:55:30;;;;;;;13.10;10.10;;;;;;;15.88;70.39;97582.84;105156;1287;23970;-84
2022/05/12 04:57:59;;;;;;;14.20;10.00;;;;;;;16.09;70.16;97582.39;105012;1287;22579;-84
2022/05/12 05:00:32;;;;;;;14.30;10.90;;;;;;;16.28;69.88;97590.58;105045;1287;22583;-84
2022/05/12 05:03:00;;;;;;;14.30;11.40;;;;;;;16.42;69.58;97587.77;104961;1287;25365;-84
2022/05/12 05:05:28;;;;;;;18.20;11.00;;;;;;;16.54;69.47;97587.61;105020;1287;22642;-84
2022/05/12 05:07:56;;;;;;;11.50;9.70;;;;;;;16.68;69.12;97588.79;105129;1287;22707;-85
2022/05/12 05:10:25;;;;;;;13.20;10.50;;;;;;;16.84;67.65;97588.61;104974;1287;22616;-84
2022/05/12 05:12:55;;;;;;;11.30;9.90;;;;;;;17.01;68.00;97593.81;104962;1287;22586;-85
2022/05/12 05:15:24;;;;;;;13.00;9.40;;;;;;;17.16;67.70;97600.67;105147;1287;23947;-85
2022/05/12 05:17:53;;;;;;;11.60;9.60;;;;;;;17.34;66.85;97596.52;105404;1287;24390;-85
2022/05/12 05:20:26;;;;;;;13.60;9.20;;;;;;;17.51;66.60;97599.15;105030;1287;25357;-84
2022/05/12 05:22:54;;;;;;;15.60;11.20;;;;;;;17.69;66.61;97597.02;105089;1287;22779;-83
2022/05/12 05:25:23;;;;;;;18.80;15.40;;;;;;;17.86;66.54;97601.66;104840;1287;22712;-84
2022/05/12 05:27:54;;;;;;;18.60;13.70;;;;;;;18.02;65.92;97600.61;104970;1287;22747;-84
2022/05/12 05:30:24;;;;;;;15.70;12.50;;;;;;;18.15;65.81;97603.70;104982;1287;22754;-85
2022/05/12 05:32:53;;;;;;;15.20;12.30;;;;;;;18.25;65.62;97602.13;105213;1287;22567;-83
2022/05/12 05:35:22;;;;;;;21.30;12.00;;;;;;;18.37;65.26;97603.80;104984;1287;22618;-84
2022/05/12 05:37:53;;;;;;;17.30;11.30;;;;;;;18.49;64.61;97604.75;104935;1287;25625;-83
2022/05/12 05:40:24;;;;;;;18.10;10.50;;;;;;;18.59;64.46;97599.11;104886;1288;22651;-84
2022/05/12 05:42:53;;;;;;;16.70;12.00;;;;;;;18.69;64.54;97601.50;105183;1287;22625;-84
2022/05/12 05:45:23;;;;;;;17.60;12.30;;;;;;;18.74;63.87;97602.64;105177;1287;22543;-84
2022/05/12 05:47:55;;;;;;;21.20;13.10;;;;;;;18.80;63.83;97598.48;104960;1287;22829;-85
2022/05/12 05:50:27;;;;;;;26.10;14.50;;;;;;;18.86;63.48;97599.75;105121;1287;25378;-83
2022/05/12 05:55:42;;;;;;;21.10;14.70;;;;;;;19.02;62.85;97590.73;105593;1287;25370;-84
2022/05/12 05:58:10;;;;;;;17.10;12.60;;;;;;;19.12;62.78;97587.30;105464;1288;22737;-84
2022/05/12 06:00:39;;;;;;;13.40;11.50;;;;;;;19.24;62.76;97585.63;106098;1287;22563;-84
2022/05/12 06:03:07;;;;;;;20.10;13.80;;;;;;;19.38;61.99;97590.48;105012;1287;24350;-84
2022/05/12 06:05:43;;;;;;;21.50;12.90;;;;;;;19.55;61.23;97590.32;105217;1287;22558;-85
2022/05/12 06:12:26;;;;;;;12.30;8.00;;;;;;;20.07;60.43;97595.21;105072;1288;22719;-85
2022/05/12 06:14:56;;;;;;;14.60;8.70;;;;;;;20.27;59.42;97599.33;104959;1287;23972;-84
2022/05/12 06:17:24;;;;;;;36.00;20.80;;;;;;;20.47;58.05;97598.74;104970;1287;24292;-83
2022/05/12 06:19:52;;;;;;;18.20;12.20;;;;;;;20.69;57.79;97591.30;105020;1287;22599;-84
2022/05/12 06:22:21;;;;;;;15.60;7.80;;;;;;;20.92;57.26;97586.48;105514;1287;24286;-85
2022/05/12 06:24:49;;;;;;;14.10;8.10;;;;;;;21.13;56.27;97580.75;104907;1287;22741;-84
2022/05/12 06:27:20;;;;;;;12.30;6.80;;;;;;;21.32;56.07;97582.27;105097;1287;22630;-84
2022/05/12 06:29:48;;;;;;;10.40;5.60;;;;;;;21.48;54.52;97588.40;105079;1287;24234;-85
2022/05/12 06:32:17;;;;;;;11.60;7.00;;;;;;;21.63;53.41;97573.95;105071;1288;22765;-84
2022/05/12 06:34:46;;;;;;;19.10;5.90;;;;;;;21.78;50.49;97580.09;104918;1287;24247;-84
2022/05/12 06:37:14;;;;;;;12.60;6.00;;;;;;;21.91;51.20;97581.29;104894;1287;22882;-84
2022/05/12 06:39:42;;;;;;;9.40;5.70;;;;;;;22.05;50.65;97593.13;104890;1289;22581;-85
2022/05/12 06:42:12;;;;;;;12.40;5.30;;;;;;;22.15;49.39;97602.63;104792;1288;22649;-85
2022/05/12 06:44:44;;;;;;;13.90;5.00;;;;;;;22.26;49.01;97608.13;104867;1289;23311;-84
2022/05/12 06:47:14;;;;;;;10.10;5.20;;;;;;;22.34;48.85;97616.48;105022;1287;22627;-85
2022/05/12 06:49:43;;;;;;;9.00;4.80;;;;;;;22.42;48.76;97618.02;104814;1289;22630;-85
2022/05/12 06:52:11;;;;;;;9.20;5.20;;;;;;;22.51;49.05;97603.71;105079;1287;25305;-84
2022/05/12 06:54:39;;;;;;;14.90;4.90;;;;;;;22.61;49.23;97602.11;104950;1287;22636;-84
2022/05/12 06:57:07;;;;;;;10.40;5.60;;;;;;;22.75;50.58;97597.08;105002;1287;22557;-84
2022/05/12 06:59:37;;;;;;;14.10;5.00;;;;;;;22.88;49.19;97604.02;104903;1288;22687;-84
2022/05/12 07:02:08;;;;;;;11.60;5.10;;;;;;;22.96;47.26;97591.60;105036;1287;22741;-84
2022/05/12 07:04:36;;;;;;;12.70;5.20;;;;;;;23.02;47.80;97589.34;105003;1287;22647;-84
2022/05/12 07:07:05;;;;;;;9.00;5.30;;;;;;;23.10;48.03;97581.59;104889;1289;25422;-84
2022/05/12 07:09:33;;;;;;;13.90;8.00;;;;;;;23.21;48.02;97577.68;105013;1287;25443;-83
2022/05/12 07:12:01;;;;;;;10.20;5.90;;;;;;;23.30;45.96;97584.14;104987;1287;22592;-84
2022/05/12 07:14:29;;;;;;;10.30;5.40;;;;;;;23.33;44.80;97578.66;105024;1287;25398;-84
2022/05/12 07:16:58;;;;;;;9.30;4.20;;;;;;;23.39;45.94;97572.44;104982;1287;22676;-83
2022/05/12 07:19:26;;;;;;;10.60;6.00;;;;;;;23.46;45.74;97562.79;105034;1287;24435;-84
2022/05/12 07:27:26;;;;;;;9.70;5.10;;;;;;;23.82;43.77;97575.22;105101;1287;23074;-83
2022/05/12 07:29:54;;;;;;;12.70;6.60;;;;;;;23.91;44.69;97579.45;105088;1287;23029;-84
2022/05/12 07:32:22;;;;;;;10.70;6.80;;;;;;;24.00;44.11;97578.73;104945;1287;22680;-84
2022/05/12 07:34:50;;;;;;;12.50;5.20;;;;;;;24.10;44.03;97582.90;105085;1287;23583;-84
2022/05/12 07:37:19;;;;;;;13.80;5.10;;;;;;;24.15;43.37;97582.27;104833;1289;22721;-83
2022/05/12 07:39:46;;;;;;;13.70;4.60;;;;;;;24.23;43.12;97589.48;105104;1287;22486;-83
2022/05/12 07:42:14;;;;;;;14.60;4.90;;;;;;;24.31;42.07;97594.11;105077;1287;24448;-85
2022/05/12 07:44:42;;;;;;;8.20;4.90;;;;;;;24.33;41.88;97591.42;104999;1287;22613;-84
2022/05/12 07:47:15;;;;;;;8.70;4.80;;;;;;;24.38;42.50;97594.15;104997;1287;23948;-84
2022/05/12 07:49:43;;;;;;;9.10;4.50;;;;;;;24.50;41.99;97600.68;105039;1287;22559;-84
2022/05/12 07:52:13;;;;;;;13.20;5.30;;;;;;;24.61;42.15;97597.66;104872;1289;24291;-85
2022/05/12 07:54:42;;;;;;;8.10;4.60;;;;;;;24.66;41.23;97604.73;104890;1289;22576;-85
2022/05/12 07:57:10;;;;;;;9.80;4.80;;;;;;;24.68;41.39;97599.52;105009;1287;24104;-85
2022/05/12 07:59:42;;;;;;;11.70;4.70;;;;;;;24.73;40.61;97606.03;104976;1287;22589;-84
2022/05/12 08:02:15;;;;;;;10.60;5.00;;;;;;;24.77;40.84;97606.73;105329;1287;22545;-85
2022/05/12 08:04:44;;;;;;;14.50;5.40;;;;;;;24.80;40.02;97615.15;105165;1287;22555;-84
2022/05/12 08:07:12;;;;;;;8.80;4.20;;;;;;;24.82;39.70;97626.95;105061;1287;22624;-85
2022/05/12 08:09:44;;;;;;;10.70;4.40;;;;;;;24.84;39.38;97613.78;105150;1287;22680;-85
2022/05/12 08:12:12;;;;;;;9.10;4.40;;;;;;;24.91;39.15;97632.34;105029;1287;24073;-83
2022/05/12 08:14:40;;;;;;;13.60;5.20;;;;;;;24.95;39.69;97618.92;105108;1287;22608;-83
2022/05/12 08:17:09;;;;;;;19.40;5.80;;;;;;;24.95;39.52;97622.08;105019;1287;24323;-87
2022/05/12 08:19:37;;;;;;;16.40;4.90;;;;;;;24.89;40.31;97616.67;105232;1287;22615;-85
2022/05/12 08:22:08;;;;;;;16.50;5.60;;;;;;;24.80;39.58;97621.59;107555;1287;22559;-83
2022/05/12 08:24:36;;;;;;;15.10;5.50;;;;;;;24.72;40.00;97614.14;108510;1287;22564;-83
2022/05/12 08:27:05;;;;;;;11.50;5.50;;;;;;;24.73;40.62;97614.30;108475;1287;22631;-83
2022/05/12 08:29:32;;;;;;;10.40;4.90;;;;;;;24.82;40.04;97610.09;107138;1287;22498;-83
2022/05/12 08:32:00;;;;;;;13.10;5.00;;;;;;;24.95;40.13;97608.14;106997;1287;22605;-83
2022/05/12 08:34:29;;;;;;;17.60;5.30;;;;;;;25.08;40.24;97598.63;106336;1287;25376;-83
2022/05/12 08:36:57;;;;;;;13.00;5.30;;;;;;;25.25;40.19;97599.75;106033;1287;22840;-84
2022/05/12 08:39:25;;;;;;;14.00;5.00;;;;;;;25.40;39.12;97608.16;105654;1287;23158;-85
2022/05/12 08:42:07;;;;;;;13.20;5.10;;;;;;;25.39;38.01;97611.86;105186;1288;22715;-85
2022/05/12 08:44:39;;;;;;;15.30;5.50;;;;;;;25.35;38.36;97613.79;105055;1287;24097;-85
2022/05/12 08:47:13;;;;;;;17.20;4.70;;;;;;;25.40;38.53;97620.70;105233;1288;25261;-86
2022/05/12 08:49:45;;;;;;;15.10;5.00;;;;;;;25.29;37.34;97628.39;105048;1287;22722;-85
2022/05/12 08:52:15;;;;;;;11.30;4.60;;;;;;;25.20;37.95;97622.46;104934;1289;22726;-84
2022/05/12 08:55:05;;;;;;;11.20;5.10;;;;;;;25.13;37.87;97613.89;105154;1288;22715;-85
2022/05/12 08:57:43;;;;;;;16.50;5.40;;;;;;;25.09;38.48;97628.00;104987;1287;22574;-83
2022/05/12 09:00:15;;;;;;;15.00;5.30;;;;;;;25.08;38.01;97630.84;105064;1287;23230;-84
2022/05/12 09:03:15;;;;;;;15.30;4.60;;;;;;;25.04;37.41;97642.20;105127;1287;25424;-85
2022/05/12 09:06:02;;;;;;;11.50;4.70;;;;;;;24.97;37.87;97633.09;104986;1287;22824;-85
2022/05/12 09:09:04;;;;;;;12.30;5.90;;;;;;;24.90;37.83;97633.13;104973;1287;22823;-85
2022/05/12 09:11:45;;;;;;;16.90;5.10;;;;;;;24.93;38.15;97631.23;105103;1287;24457;-84
2022/05/12 09:14:22;;;;;;;12.60;5.00;;;;;;;24.95;37.87;97627.52;105128;1287;22571;-85
2022/05/12 09:16:52;;;;;;;10.90;5.10;;;;;;;24.90;37.11;97633.67;105057;1287;22567;-84
2022/05/12 09:19:21;;;;;;;17.00;6.50;;;;;;;24.87;36.85;97631.88;105147;1287;23553;-85
2022/05/12 09:21:50;;;;;;;16.90;7.20;;;;;;;24.84;37.29;97633.31;105110;1288;22763;-84
2022/05/12 09:24:18;;;;;;;11.20;4.80;;;;;;;24.85;37.41;97630.08;105116;1287;24442;-84
2022/05/12 09:26:51;;;;;;;7.90;4.70;;;;;;;24.81;37.56;97633.73;105150;1287;24116;-86
2022/05/12 09:29:33;;;;;;;12.90;4.90;;;;;;;24.72;37.36;97643.91;104998;1287;22550;-85
2022/05/12 09:32:27;;;;;;;13.30;5.00;;;;;;;24.64;37.60;97640.23;105489;1287;22579;-84
2022/05/12 09:35:04;;;;;;;10.70;5.10;;;;;;;24.60;37.95;97646.70;104927;1293;22930;-85
2022/05/12 09:37:36;;;;;;;12.20;4.50;;;;;;;24.58;37.51;97639.07;104885;1294;22546;-84
2022/05/12 09:40:15;;;;;;;11.40;6.20;;;;;;;24.55;37.48;97651.67;104533;1294;22589;-84
2022/05/12 09:42:47;;;;;;;9.70;5.50;;;;;;;24.51;37.29;97642.63;104425;1293;22707;-86
2022/05/12 09:45:27;;;;;;;15.30;6.80;;;;;;;24.58;37.92;97641.42;105326;1294;22635;-86
2022/05/12 09:48:13;;;;;;;13.20;5.60;;;;;;;24.76;37.53;97641.69;105160;1294;22736;-85
2022/05/12 09:50:41;;;;;;;16.00;6.20;;;;;;;24.94;36.36;97651.70;105429;1294;22598;-84
2022/05/12 09:53:13;;;;;;;16.60;10.90;;;;;;;25.05;36.24;97635.58;105062;1295;24267;-84
2022/05/12 09:55:56;;;;;;;33.90;17.10;;;;;;;25.16;36.32;97633.89;104816;1294;22680;-84
2022/05/12 09:58:32;;;;;;;25.80;10.20;;;;;;;25.31;36.04;97638.39;104812;1294;22560;-86
2022/05/12 10:01:19;;;;;;;17.80;8.90;;;;;;;25.47;35.13;97643.50;104691;1294;26268;-84
2022/05/12 10:09:53;;;;;;;10.50;4.60;;;;;;;25.61;34.54;97642.70;104682;1294;24025;-84
2022/05/12 10:12:30;;;;;;;15.40;6.60;;;;;;;25.62;35.11;97638.19;104749;1289;22633;-84
2022/05/12 10:15:22;;;;;;;14.90;5.30;;;;;;;25.77;35.30;97627.69;105843;1287;25380;-85
2022/05/12 10:17:58;;;;;;;10.60;4.30;;;;;;;25.93;34.61;97632.08;104904;1288;477020;-84
2022/05/12 10:20:29;;;;;;;24.30;6.00;;;;;;;25.97;34.04;97644.34;104804;1288;25104;-84
2022/05/12 10:23:15;;;;;;;16.20;4.40;;;;;;;26.00;33.82;97651.41;105229;1288;22593;-85
2022/05/12 10:26:12;;;;;;;13.10;4.60;;;;;;;25.93;33.71;97654.01;105828;1287;22566;-85
2022/05/12 10:29:00;;;;;;;10.60;4.30;;;;;;;26.03;34.35;97636.00;106126;1287;22590;-84
2022/05/12 10:31:54;;;;;;;17.40;4.60;;;;;;;26.21;34.32;97635.30;105875;1289;22589;-85
2022/05/12 10:34:33;;;;;;;13.90;4.70;;;;;;;26.37;33.51;97647.53;105384;1287;25377;-84
2022/05/12 10:37:13;;;;;;;16.10;4.10;;;;;;;26.31;32.74;97654.52;105196;1287;22582;-84
2022/05/12 10:39:56;;;;;;;19.50;4.10;;;;;;;26.05;32.37;97643.80;105757;1287;22506;-86
2022/05/12 10:42:57;;;;;;;14.10;4.00;;;;;;;25.97;33.38;97650.81;106091;1287;25462;-86
2022/05/12 10:45:59;;;;;;;11.20;3.60;;;;;;;25.95;32.88;97646.56;106087;1289;22566;-84
2022/05/12 10:48:49;;;;;;;21.50;4.90;;;;;;;25.86;33.20;97650.98;106367;1287;22622;-85
2022/05/12 10:51:39;;;;;;;13.80;4.10;;;;;;;25.81;33.54;97649.58;106050;1287;24340;-84
2022/05/12 10:54:35;;;;;;;15.10;4.60;;;;;;;25.89;33.21;97653.00;105984;1288;23057;-84
2022/05/12 10:57:22;;;;;;;16.20;4.10;;;;;;;25.91;33.87;97635.25;105351;1294;22641;-84
2022/05/12 11:00:08;;;;;;;9.60;4.00;;;;;;;25.97;34.10;97642.45;105593;1294;22722;-86
2022/05/12 11:02:41;;;;;;;13.20;4.30;;;;;;;26.18;33.63;97644.40;104775;1294;25388;-85
2022/05/12 11:05:21;;;;;;;8.00;3.80;;;;;;;26.32;33.89;97644.19;105465;1294;22512;-83
2022/05/12 11:08:21;;;;;;;13.40;4.50;;;;;;;26.33;33.97;97650.73;105179;1294;25977;-85
2022/05/12 11:11:12;;;;;;;11.30;4.00;;;;;;;26.20;34.06;97670.73;104898;1294;25336;-84
2022/05/12 11:13:57;;;;;;;12.20;4.30;;;;;;;26.05;33.56;97672.42;105331;1293;24526;-85
2022/05/12 11:16:43;;;;;;;14.00;4.60;;;;;;;25.94;34.24;97669.54;104691;1294;22603;-85
2022/05/12 11:19:25;;;;;;;14.80;3.90;;;;;;;25.87;34.13;97677.30;105358;1294;23616;-86
2022/05/12 11:22:21;;;;;;;11.70;4.20;;;;;;;25.79;34.15;97699.41;105083;1295;23053;-86
2022/05/12 11:24:52;;;;;;;12.50;3.90;;;;;;;25.76;34.34;97669.63;105408;1294;24347;-84
2022/05/12 11:29:41;;;;;;;14.20;4.00;;;;;;;25.92;34.48;97670.02;104751;1294;22700;-85
2022/05/12 11:30:47;;;;;;;14.80;4.20;;;;;;;26.19;34.43;97666.16;104689;1294;22557;-86
2022/05/12 11:33:38;;;;;;;8.60;3.80;;;;;;;26.34;34.24;97668.30;104655;1294;23371;-85
2022/05/12 11:36:11;;;;;;;11.10;3.60;;;;;;;26.55;34.15;97659.69;105003;1287;25339;-86
2022/05/12 11:38:42;;;;;;;11.90;3.90;;;;;;;26.67;33.67;97661.30;105204;1287;24758;-87
2022/05/12 11:41:20;;;;;;;11.70;3.90;;;;;;;26.82;33.98;97660.96;105144;1287;22489;-84
2022/05/12 11:44:24;;;;;;;11.70;3.90;;;;;;;26.89;32.87;97677.71;105293;1287;23944;-85
2022/05/12 11:47:26;;;;;;;12.80;3.60;;;;;;;26.73;32.27;97688.25;105371;1287;24146;-86
2022/05/12 11:50:07;;;;;;;18.10;3.20;;;;;;;26.62;31.62;97687.48;105694;1287;23997;-84
2022/05/12 11:52:54;;;;;;;18.40;4.20;;;;;;;26.53;31.82;97686.70;105919;1287;25380;-85
2022/05/12 11:55:37;;;;;;;20.50;4.20;;;;;;;26.43;31.45;97685.59;105336;1288;22582;-83
2022/05/12 11:58:13;;;;;;;15.60;3.40;;;;;;;26.24;32.06;97690.02;105531;1287;23113;-85
2022/05/12 12:00:43;;;;;;;8.20;3.00;;;;;;;26.19;31.82;97688.41;105125;1287;23060;-84
2022/05/12 12:03:23;;;;;;;10.80;3.20;;;;;;;26.18;32.30;97703.73;105746;1289;25231;-83
2022/05/12 12:05:51;;;;;;;15.20;4.10;;;;;;;26.20;31.71;97698.81;105481;1287;24238;-85